Time;durP1;ratioP1;P1;durP2;ratioP2;P2;SDS_P1;SDS_P2;PMS_P1;PMS_P2;Temp;Humidity;BMP_temperature;BMP_pressure;BME280_temperature;BME280_humidity;BME280_pressure;Samples;Min_cycle;Max_cycle;Signal;HPM_P1;HPM_P2
2021/06/17 00:03:44;;;;;;;;;11.00;11.00;;;;;29.95;100.00;100403.25;4883362;29;45406;-68
2021/06/17 00:06:10;;;;;;;;;10.25;9.75;;;;;29.99;100.00;100420.78;4882863;29;46410;-68
2021/06/17 00:08:35;;;;;;;;;11.00;10.50;;;;;29.97;100.00;100413.84;4883177;29;45380;-69
2021/06/17 00:11:01;;;;;;;;;11.50;10.00;;;;;29.97;100.00;100416.56;4883177;29;45394;-68
2021/06/17 00:13:29;;;;;;;;;10.75;10.75;;;;;29.96;100.00;100423.78;4883112;29;45472;-68
2021/06/17 00:15:59;;;;;;;;;11.00;11.00;;;;;29.95;100.00;100418.56;4882072;29;46756;-68
2021/06/17 00:18:25;;;;;;;;;12.00;11.75;;;;;29.91;100.00;100422.56;4882635;29;45354;-69
2021/06/17 00:20:51;;;;;;;;;10.75;10.00;;;;;29.92;100.00;100426.94;4883052;29;45361;-69
2021/06/17 00:23:17;;;;;;;;;11.50;10.75;;;;;29.93;100.00;100436.72;4882978;29;45458;-68
2021/06/17 00:25:43;;;;;;;;;12.25;11.75;;;;;29.89;100.00;100430.78;4882526;29;46531;-68
2021/06/17 00:28:10;;;;;;;;;11.75;11.75;;;;;29.92;100.00;100429.63;4882603;29;45299;-68
2021/06/17 00:33:57;;;;;;;;;11.00;11.00;;;;;29.84;100.00;100406.16;4882711;29;45453;-68
2021/06/17 00:36:23;;;;;;;;;12.00;12.00;;;;;29.90;100.00;100413.63;4882368;29;46899;-68
2021/06/17 00:38:48;;;;;;;;;13.00;11.50;;;;;29.90;100.00;100405.56;4882463;29;45460;-68
2021/06/17 00:41:14;;;;;;;;;9.75;9.75;;;;;29.83;100.00;100397.22;4882607;29;45435;-69
2021/06/17 00:43:39;;;;;;;;;14.50;12.75;;;;;29.86;100.00;100401.47;4882696;29;45271;-69
2021/06/17 00:46:05;;;;;;;;;12.25;12.00;;;;;29.81;100.00;100377.72;4882307;29;47227;-69
2021/06/17 00:48:30;;;;;;;;;10.50;10.25;;;;;29.72;100.00;100358.97;4882376;29;45237;-69
2021/06/17 00:50:58;;;;;;;;;12.50;11.00;;;;;29.86;100.00;100374.53;4882686;29;45461;-68
2021/06/17 00:53:30;;;;;;;;;11.25;10.75;;;;;29.79;100.00;100355.47;4882727;29;45468;-69
2021/06/17 00:55:57;;;;;;;;;13.75;13.00;;;;;29.80;100.00;100348.25;4882141;29;46323;-69
2021/06/17 00:58:23;;;;;;;;;10.50;10.50;;;;;29.84;100.00;100357.69;4882441;29;45540;-70
2021/06/17 01:04:10;;;;;;;;;11.25;11.00;;;;;29.79;100.00;100363.56;4882438;29;45326;-68
2021/06/17 01:06:35;;;;;;;;;12.50;10.50;;;;;29.81;100.00;100363.41;4881928;29;47149;-68
2021/06/17 01:09:07;;;;;;;;;10.75;10.75;;;;;29.80;100.00;100348.25;4882300;29;45415;-68
2021/06/17 01:11:48;;;;;;;;;10.75;9.50;;;;;29.78;100.00;100329.56;4882479;29;45362;-68
2021/06/17 01:14:21;;;;;;;;;14.75;13.25;;;;;29.67;100.00;100315.53;4882354;29;45637;-68
2021/06/17 01:17:03;;;;;;;;;11.25;11.25;;;;;29.73;100.00;100328.34;4881529;29;45407;-68
2021/06/17 01:19:34;;;;;;;;;12.00;11.25;;;;;29.69;100.00;100318.91;4881978;29;45539;-70
2021/06/17 01:22:08;;;;;;;;;10.00;10.00;;;;;29.72;100.00;100330.19;4882274;29;45329;-68
2021/06/17 01:24:40;;;;;;;;;11.25;11.00;;;;;29.71;100.00;100330.34;4882184;29;45319;-68
2021/06/17 01:27:25;;;;;;;;;11.50;11.00;;;;;29.71;100.00;100330.34;4880882;29;45749;-68
2021/06/17 01:29:56;;;;;;;;;11.00;10.50;;;;;29.56;100.00;100316.59;4881826;29;45411;-68
2021/06/17 01:32:24;;;;;;;;;10.50;10.50;;;;;29.67;100.00;100351.34;4881717;29;45326;-69
2021/06/17 01:34:52;;;;;;;;;14.25;13.00;;;;;29.54;100.00;100334.75;4882014;29;45416;-68
2021/06/17 01:37:23;;;;;;;;;10.25;9.75;;;;;29.63;100.00;100352.63;4881710;29;46250;-68
2021/06/17 01:39:51;;;;;;;;;10.00;10.00;;;;;29.62;100.00;100353.63;4881676;29;45604;-68
2021/06/17 01:42:20;;;;;;;;;11.25;10.50;;;;;29.57;100.00;100355.94;4881776;29;45322;-68
2021/06/17 01:44:46;;;;;;;;;11.25;10.00;;;;;29.58;100.00;100371.94;4881927;29;45431;-69
2021/06/17 01:47:13;;;;;;;;;13.50;13.50;;;;;29.56;100.00;100390.09;4881691;29;46601;-69
2021/06/17 01:49:40;;;;;;;;;11.25;11.25;;;;;29.51;100.00;100440.81;4881429;29;45433;-67
2021/06/17 01:52:07;;;;;;;;;13.75;12.75;;;;;29.47;100.00;100611.63;4881695;29;45355;-62
2021/06/17 01:54:33;;;;;;;;;9.50;9.25;;;;;29.08;100.00;100679.91;4881839;29;45406;-72
2021/06/17 01:57:01;;;;;;;;;7.25;6.75;;;;;28.11;100.00;100681.53;4881771;29;46404;-66
2021/06/17 01:59:30;;;;;;;;;3.50;3.50;;;;;26.73;100.00;100711.22;4881691;29;45457;-67
2021/06/17 02:02:00;;;;;;;;;2.00;1.75;;;;;25.37;100.00;100694.38;4881735;29;45243;-68
2021/06/17 02:04:28;;;;;;;;;4.25;4.00;;;;;24.21;100.00;100737.63;4881736;29;45416;-67
2021/06/17 02:06:54;;;;;;;;;8.50;5.25;;;;;23.20;100.00;100667.34;4881556;29;45459;-68
2021/06/17 02:09:23;;;;;;;;;6.75;6.75;;;;;22.55;100.00;100641.47;4881564;29;45448;-69
2021/06/17 02:11:49;;;;;;;;;8.00;6.00;;;;;22.21;100.00;100610.03;4881706;29;45342;-68
2021/06/17 02:14:16;;;;;;;;;8.00;8.00;;;;;21.96;100.00;100565.53;4881464;29;45358;-71
2021/06/17 02:16:43;;;;;;;;;9.25;7.50;;;;;21.79;100.00;100547.16;4881138;29;47275;-69
2021/06/17 02:19:13;;;;;;;;;9.25;9.00;;;;;21.90;100.00;100552.63;4881114;29;45749;-73
2021/06/17 02:21:40;;;;;;;;;8.75;8.25;;;;;21.87;100.00;100560.78;4881295;29;45354;-72
2021/06/17 02:24:08;;;;;;;;;9.00;9.00;;;;;21.91;100.00;100564.94;4881751;29;45389;-71
2021/06/17 02:26:37;;;;;;;;;11.00;10.50;;;;;21.91;100.00;100554.31;4880926;29;46597;-70
2021/06/17 02:29:04;;;;;;;;;11.75;10.75;;;;;21.89;100.00;100565.06;4881334;29;45219;-70
2021/06/17 02:34:53;;;;;;;;;11.75;11.00;;;;;21.87;100.00;100701.69;4881326;29;45306;-69
2021/06/17 02:37:19;;;;;;;;;14.50;14.25;;;;;21.87;100.00;100816.84;4881243;29;45538;-70
2021/06/17 02:39:48;;;;;;;;;10.75;10.25;;;;;21.70;100.00;100823.16;4883384;29;45473;-73
2021/06/17 02:42:16;;;;;;;;;11.00;10.00;;;;;21.67;100.00;100827.78;4884307;29;45230;-72
2021/06/17 02:44:44;;;;;;;;;7.75;6.50;;;;;21.61;100.00;100844.09;4884776;29;45394;-72
2021/06/17 02:47:12;;;;;;;;;11.75;10.00;;;;;21.42;100.00;100838.16;4884244;29;45494;-72
2021/06/17 02:49:39;;;;;;;;;10.00;9.25;;;;;21.34;100.00;100788.13;4867179;29;45592;-71
2021/06/17 02:52:05;;;;;;;;;9.00;8.75;;;;;21.34;100.00;100743.84;4884592;29;45433;-71
2021/06/17 02:54:30;;;;;;;;;7.75;7.75;;;;;21.31;100.00;100754.66;4884359;29;45515;-73
2021/06/17 02:57:09;;;;;;;;;13.25;9.50;;;;;21.28;100.00;100748.66;4883847;29;46614;-74
2021/06/17 03:00:04;;;;;;;;;9.75;8.75;;;;;21.14;100.00;100706.94;4883893;29;45708;-71
2021/06/17 03:02:59;;;;;;;;;11.75;10.00;;;;;21.29;100.00;100722.00;4884396;29;45453;-71
2021/06/17 03:05:46;;;;;;;;;8.50;8.00;;;;;21.34;100.00;100740.31;4880782;29;45606;-71
2021/06/17 03:08:17;;;;;;;;;11.00;9.50;;;;;21.37;100.00;100725.06;4884048;29;45438;-72
2021/06/17 03:10:45;;;;;;;;;8.50;8.25;;;;;21.36;100.00;100707.41;4884020;29;45504;-71
2021/06/17 03:13:12;;;;;;;;;9.00;8.75;;;;;21.31;100.00;100661.69;4883978;29;45450;-71
2021/06/17 03:15:41;;;;;;;;;12.00;11.00;;;;;21.40;100.00;100666.44;4884238;29;45368;-70
2021/06/17 03:18:09;;;;;;;;;13.00;11.00;;;;;21.38;100.00;100656.84;4866561;29;48603;-70
2021/06/17 03:20:39;;;;;;;;;8.75;8.75;;;;;21.45;100.00;100598.88;4883482;29;45556;-71
2021/06/17 03:23:09;;;;;;;;;10.00;9.75;;;;;21.49;100.00;100622.50;4883962;29;45280;-72
2021/06/17 03:25:37;;;;;;;;;10.25;9.50;;;;;21.47;100.00;100602.28;4883781;29;45502;-74
2021/06/17 03:28:03;;;;;;;;;12.00;11.00;;;;;21.47;100.00;100604.94;4867158;29;45364;-71
2021/06/17 03:30:30;;;;;;;;;13.50;11.75;;;;;21.57;100.00;100614.94;4883674;29;45434;-71
2021/06/17 03:32:58;;;;;;;;;13.50;11.50;;;;;21.67;100.00;100626.69;4883947;29;45298;-77
2021/06/17 03:35:28;;;;;;;;;10.00;9.75;;;;;21.73;100.00;100625.47;4884006;29;45208;-71
2021/06/17 03:37:55;;;;;;;;;12.50;11.50;;;;;21.76;100.00;100592.53;4883603;29;45553;-71
2021/06/17 03:40:22;;;;;;;;;10.00;9.50;;;;;21.88;100.00;100570.47;4883385;29;45523;-72
2021/06/17 03:42:51;;;;;;;;;11.00;10.25;;;;;21.92;100.00;100545.38;4883653;29;45287;-71
2021/06/17 03:45:18;;;;;;;;;12.50;9.75;;;;;22.00;100.00;100501.41;4883749;29;45309;-72
2021/06/17 03:47:47;;;;;;;;;10.75;9.50;;;;;22.09;100.00;100513.28;4883096;29;46696;-74
2021/06/17 03:50:15;;;;;;;;;13.25;10.25;;;;;22.12;100.00;100499.78;4882126;29;45432;-78
2021/06/17 03:52:45;;;;;;;;;15.00;10.00;;;;;22.21;100.00;100519.63;4883084;29;45315;-71
2021/06/17 03:55:16;;;;;;;;;12.75;11.25;;;;;22.19;100.00;100514.41;4883376;29;45322;-71
2021/06/17 03:57:42;;;;;;;;;14.25;11.25;;;;;22.23;100.00;100536.31;4883551;29;46300;-71
2021/06/17 04:00:10;;;;;;;;;11.50;9.25;;;;;22.33;100.00;100553.38;4883234;29;45343;-72
2021/06/17 04:02:36;;;;;;;;;12.00;10.00;;;;;22.25;100.00;100553.03;4883256;29;45299;-71
2021/06/17 04:05:03;;;;;;;;;10.25;10.25;;;;;22.29;100.00;100583.78;4883549;29;45237;-71
2021/06/17 04:07:29;;;;;;;;;10.00;9.25;;;;;22.23;100.00;100587.72;4882762;29;46251;-72
2021/06/17 04:09:59;;;;;;;;;10.50;9.75;;;;;22.21;100.00;100583.44;4883253;29;45491;-70
2021/06/17 04:12:29;;;;;;;;;10.00;9.50;;;;;22.27;100.00;100605.16;4883320;29;45273;-70
2021/06/17 04:14:59;;;;;;;;;11.00;9.50;;;;;22.18;100.00;100595.13;4883073;29;45434;-73
2021/06/17 04:17:31;;;;;;;;;11.50;10.50;;;;;22.22;100.00;100598.44;4882798;29;45585;-73
2021/06/17 04:19:59;;;;;;;;;10.50;10.00;;;;;22.18;100.00;100591.59;4882892;29;45378;-72
2021/06/17 04:22:26;;;;;;;;;10.00;9.25;;;;;22.18;100.00;100584.50;4882883;29;45379;-72
2021/06/17 04:24:57;;;;;;;;;11.25;9.50;;;;;22.24;100.00;100578.78;4882909;29;45341;-72
2021/06/17 04:27:23;;;;;;;;;10.00;9.25;;;;;22.22;100.00;100586.00;4882061;29;46566;-72
2021/06/17 04:29:52;;;;;;;;;11.25;9.75;;;;;22.17;100.00;100571.28;4882839;29;45736;-71
2021/06/17 04:35:41;;;;;;;;;8.75;7.25;;;;;22.16;100.00;100554.47;4883005;29;45382;-72
2021/06/17 04:38:12;;;;;;;;;9.25;9.00;;;;;22.19;100.00;100558.75;4882684;29;46223;-73
2021/06/17 04:40:39;;;;;;;;;9.75;8.50;;;;;22.24;100.00;100567.28;4882650;29;45537;-71
2021/06/17 04:43:04;;;;;;;;;11.00;9.75;;;;;22.15;100.00;100566.06;4882499;29;45234;-71
2021/06/17 04:45:31;;;;;;;;;10.50;9.50;;;;;22.19;100.00;100570.25;4865883;29;45470;-70
2021/06/17 04:48:00;;;;;;;;;10.00;10.00;;;;;22.22;100.00;100578.03;4882305;29;46565;-69
2021/06/17 04:50:26;;;;;;;;;10.25;9.00;;;;;22.16;100.00;100586.38;4882274;29;45396;-69
2021/06/17 04:53:08;;;;;;;;;9.00;8.25;;;;;22.17;100.00;100590.75;4882488;29;45355;-70
2021/06/17 04:55:35;;;;;;;;;7.75;7.50;;;;;22.13;100.00;100591.91;4882935;29;45496;-70
2021/06/17 04:58:00;;;;;;;;;9.75;9.75;;;;;22.07;100.00;100570.19;4882266;29;46258;-70
2021/06/17 05:00:26;;;;;;;;;8.00;7.25;;;;;22.10;100.00;100577.94;4882256;29;45289;-69
2021/06/17 05:02:51;;;;;;;;;10.00;8.75;;;;;22.17;100.00;100600.53;4882226;29;45457;-69
2021/06/17 05:05:16;;;;;;;;;7.25;7.25;;;;;22.13;100.00;100594.56;4882365;29;45425;-69
2021/06/17 05:12:55;;;;;;;;;8.00;8.00;;;;;22.16;100.00;100572.22;4882071;29;45308;-79
2021/06/17 05:15:20;;;;;;;;;7.50;6.75;;;;;22.22;100.00;100574.50;4882310;29;45334;-65
2021/06/17 05:17:46;;;;;;;;;7.75;7.75;;;;;22.27;100.00;100577.72;4881394;29;46431;-66
2021/06/17 05:20:12;;;;;;;;;11.00;10.00;;;;;22.34;100.00;100586.13;4881738;29;45272;-63
2021/06/17 05:22:41;;;;;;;;;7.75;7.50;;;;;22.38;100.00;100583.16;4881814;29;45318;-63
2021/06/17 05:25:07;;;;;;;;;6.50;6.50;;;;;22.48;100.00;100583.44;4881763;29;45664;-66
2021/06/17 05:27:33;;;;;;;;;8.00;6.75;;;;;22.50;100.00;100594.81;4881919;29;47290;-64
2021/06/17 05:29:58;;;;;;;;;8.50;7.00;;;;;22.47;100.00;100595.03;4881619;29;45348;-66
2021/06/17 05:35:46;;;;;;;;;7.50;6.00;;;;;22.66;100.00;100621.28;4881875;29;45334;-64
2021/06/17 05:38:15;;;;;;;;;8.00;7.75;;;;;22.64;100.00;100613.41;4881432;29;45472;-66
2021/06/17 05:40:41;;;;;;;;;9.75;8.75;;;;;22.71;100.00;100621.81;4881189;29;45298;-65
2021/06/17 05:43:06;;;;;;;;;8.00;8.00;;;;;22.81;100.00;100615.81;4881648;29;45425;-64
2021/06/17 05:45:31;;;;;;;;;8.50;8.50;;;;;22.85;100.00;100606.66;4881510;29;45221;-67
2021/06/17 05:47:57;;;;;;;;;9.00;7.00;;;;;22.95;100.00;100606.03;4881541;29;46310;-70
2021/06/17 05:50:22;;;;;;;;;8.00;7.25;;;;;23.08;100.00;100609.56;4881587;29;45288;-74
2021/06/17 05:52:48;;;;;;;;;6.00;6.00;;;;;23.12;100.00;100613.75;4881551;29;45286;-73
2021/06/17 05:55:13;;;;;;;;;7.00;6.75;;;;;23.18;100.00;100618.66;4881621;29;45268;-72
2021/06/17 05:57:39;;;;;;;;;8.00;7.00;;;;;23.23;100.00;100625.34;4881335;29;46542;-72
2021/06/17 06:00:08;;;;;;;;;8.00;7.75;;;;;23.29;100.00;100637.38;4881449;29;45393;-72
2021/06/17 06:05:55;;;;;;;;;6.25;6.00;;;;;23.36;100.00;100638.69;4881676;29;45360;-73
2021/06/17 06:08:21;;;;;;;;;6.25;5.50;;;;;23.43;100.00;100647.97;4881698;29;45386;-73
2021/06/17 06:10:46;;;;;;;;;7.00;7.00;;;;;23.48;100.00;100653.81;4881287;29;45428;-72
2021/06/17 06:13:12;;;;;;;;;7.00;6.00;;;;;23.53;100.00;100658.81;4881866;29;45359;-73
2021/06/17 06:15:38;;;;;;;;;7.00;6.00;;;;;23.52;100.00;100655.31;4885109;29;45355;-73
2021/06/17 06:18:08;;;;;;;;;7.25;6.75;;;;;23.53;100.00;100659.66;4884167;29;47377;-73
2021/06/17 06:20:35;;;;;;;;;6.00;5.75;;;;;23.57;100.00;100676.38;4884448;29;45629;-73
2021/06/17 06:23:01;;;;;;;;;8.00;6.00;;;;;23.53;100.00;100670.34;4884802;29;45402;-74
2021/06/17 06:25:30;;;;;;;;;5.00;5.00;;;;;23.64;100.00;100676.78;4884547;29;45651;-74
2021/06/17 06:27:55;;;;;;;;;7.75;5.25;;;;;23.70;100.00;100684.34;4884324;29;46387;-73
2021/06/17 06:30:22;;;;;;;;;8.00;5.00;;;;;23.73;100.00;100700.97;4884327;29;45267;-73
2021/06/17 06:36:09;;;;;;;;;7.25;7.25;;;;;23.69;100.00;100711.97;4884406;29;45365;-73
2021/06/17 06:38:34;;;;;;;;;7.50;7.00;;;;;23.78;100.00;100735.34;4884307;29;46711;-73
2021/06/17 06:41:00;;;;;;;;;6.00;5.00;;;;;23.74;100.00;100723.16;4884538;29;45454;-73
2021/06/17 06:43:26;;;;;;;;;6.25;6.00;;;;;23.83;100.00;100734.06;4884062;29;45320;-74
2021/06/17 06:45:51;;;;;;;;;6.75;6.75;;;;;23.84;100.00;100737.56;4884398;29;45288;-72
2021/06/17 06:48:18;;;;;;;;;4.75;3.75;;;;;23.88;100.00;100731.06;4883553;29;47394;-74
2021/06/17 06:50:44;;;;;;;;;7.25;7.00;;;;;23.93;100.00;100734.25;4883648;29;45600;-70
2021/06/17 06:53:10;;;;;;;;;6.00;6.00;;;;;23.96;100.00;100728.69;4883937;29;45464;-72
2021/06/17 06:55:36;;;;;;;;;8.00;7.00;;;;;24.08;100.00;100740.34;4884265;29;45451;-71
2021/06/17 06:58:02;;;;;;;;;7.00;6.00;;;;;24.04;100.00;100723.69;4883621;29;46498;-71
2021/06/17 07:00:27;;;;;;;;;7.00;7.00;;;;;24.17;100.00;100738.81;4883982;29;45527;-71
2021/06/17 07:06:14;;;;;;;;;4.00;4.00;;;;;24.17;100.00;100726.31;4883932;29;45352;-69
2021/06/17 07:08:39;;;;;;;;;8.00;7.50;;;;;24.28;100.00;100744.25;4883638;29;46293;-69
2021/06/17 07:11:05;;;;;;;;;8.25;7.25;;;;;24.35;100.00;100740.22;4883368;29;45425;-70
2021/06/17 07:13:30;;;;;;;;;7.25;6.75;;;;;24.48;100.00;100759.72;4883545;29;45361;-71
2021/06/17 07:15:56;;;;;;;;;7.25;7.25;;;;;24.42;100.00;100754.81;4883747;29;45512;-74
2021/06/17 07:18:21;;;;;;;;;6.75;6.50;;;;;24.53;100.00;100775.41;4883085;29;45451;-74
2021/06/17 07:20:47;;;;;;;;;8.25;7.75;;;;;24.49;100.00;100758.78;4883118;29;45342;-74
2021/06/17 07:23:12;;;;;;;;;6.25;6.25;;;;;24.49;100.00;100761.44;4883275;29;45281;-75
2021/06/17 07:25:38;;;;;;;;;7.75;6.25;;;;;24.50;100.00;100752.47;4883739;29;45298;-74
2021/06/17 07:28:03;;;;;;;;;6.25;5.75;;;;;24.61;100.00;100765.03;4883324;29;45551;-74
2021/06/17 07:30:29;;;;;;;;;6.25;6.25;;;;;24.59;100.00;100754.47;4883067;29;45385;-73
2021/06/17 07:36:17;;;;;;;;;7.00;5.75;;;;;24.68;100.00;100783.19;4883387;29;45363;-74
2021/06/17 07:38:43;;;;;;;;;5.50;4.50;;;;;24.68;100.00;100771.66;4883024;29;46516;-73
2021/06/17 07:41:08;;;;;;;;;3.00;3.00;;;;;24.72;100.00;100765.13;4882787;29;45382;-73
2021/06/17 07:43:34;;;;;;;;;4.00;4.00;;;;;24.77;100.00;100773.63;4883202;29;45303;-72
2021/06/17 07:45:59;;;;;;;;;4.75;2.75;;;;;24.86;100.00;100788.13;4883361;29;45277;-72
2021/06/17 07:48:26;;;;;;;;;7.00;5.75;;;;;24.84;100.00;100780.22;4882971;29;45338;-74
2021/06/17 07:50:52;;;;;;;;;6.00;5.00;;;;;24.83;100.00;100775.84;4883099;29;45329;-74
2021/06/17 07:53:17;;;;;;;;;4.75;4.75;;;;;24.86;100.00;100780.09;4883186;29;45359;-73
2021/06/17 07:55:44;;;;;;;;;5.00;5.00;;;;;24.86;100.00;100775.63;4883397;29;45385;-72
2021/06/17 07:58:10;;;;;;;;;5.00;5.00;;;;;24.85;100.00;100778.41;4882584;29;46208;-72
2021/06/17 08:00:35;;;;;;;;;5.25;5.25;;;;;24.96;100.00;100805.19;4883091;29;45547;-72
2021/06/17 08:06:23;;;;;;;;;5.75;5.00;;;;;24.99;100.00;100778.28;4883017;29;45239;-73
2021/06/17 08:08:48;;;;;;;;;6.00;6.00;;;;;25.02;100.00;100781.59;4882538;29;46297;-72
2021/06/17 08:11:13;;;;;;;;;6.00;5.25;;;;;25.12;100.00;100789.78;4882481;29;45331;-66
2021/06/17 08:13:39;;;;;;;;;3.75;3.25;;;;;25.23;100.00;100784.47;4882467;29;45400;-77
2021/06/17 08:16:05;;;;;;;;;7.00;6.25;;;;;25.33;100.00;100787.31;4865717;29;45530;-68
2021/06/17 08:22:31;;;;;;;;;7.00;6.00;;;;;25.46;100.00;100797.94;4881725;29;45602;-67
2021/06/17 08:24:57;;;;;;;;;6.50;5.50;;;;;25.53;100.00;100800.03;4882577;29;45779;-67
2021/06/17 08:27:22;;;;;;;;;2.00;2.00;;;;;25.62;100.00;100806.50;4882770;29;45289;-67
2021/06/17 08:29:48;;;;;;;;;5.00;4.00;;;;;25.72;100.00;100820.91;4882216;29;47711;-67
2021/06/17 08:32:14;;;;;;;;;4.00;4.00;;;;;25.87;100.00;100816.22;4882313;29;45267;-68
2021/06/17 08:34:40;;;;;;;;;4.50;4.00;;;;;25.96;100.00;100810.13;4865491;29;45408;-68
2021/06/17 08:37:05;;;;;;;;;4.00;4.00;;;;;26.10;100.00;100817.97;4881854;29;45573;-68
2021/06/17 08:39:32;;;;;;;;;6.25;4.25;;;;;26.22;100.00;100811.63;4881907;29;46440;-68
2021/06/17 08:41:58;;;;;;;;;3.25;3.25;;;;;26.36;100.00;100823.13;4882265;29;45399;-68
2021/06/17 08:44:23;;;;;;;;;5.25;4.50;;;;;26.42;100.00;100828.84;4882017;29;45431;-68
2021/06/17 08:46:51;;;;;;;;;4.00;4.00;;;;;26.46;100.00;100826.75;4882082;29;45366;-68
2021/06/17 08:49:21;;;;;;;;;5.00;3.50;;;;;26.46;100.00;100827.59;4881824;29;47248;-68
2021/06/17 08:51:50;;;;;;;;;4.25;3.75;;;;;26.37;100.00;100812.28;4881723;29;45321;-68
2021/06/17 08:54:21;;;;;;;;;6.00;5.00;;;;;26.37;100.00;100835.53;4881958;29;45284;-67
2021/06/17 08:56:50;;;;;;;;;5.00;4.25;;;;;26.38;100.00;100840.75;4882036;29;45660;-68
2021/06/17 08:59:16;;;;;;;;;5.00;4.00;;;;;26.39;100.00;100823.72;4881633;29;46288;-67
2021/06/17 09:01:56;;;;;;;;;3.00;3.00;;;;;26.53;100.00;100847.59;4881490;29;45348;-67
2021/06/17 09:04:25;;;;;;;;;3.25;2.50;;;;;26.70;100.00;100824.78;4881663;29;45382;-68
2021/06/17 09:07:10;;;;;;;;;3.00;3.00;;;;;26.84;100.00;100823.69;4882046;29;45455;-68
2021/06/17 09:09:41;;;;;;;;;3.50;3.50;;;;;26.97;100.00;100815.53;4881978;29;46556;-69
2021/06/17 09:12:09;;;;;;;;;3.25;3.00;;;;;27.16;100.00;100831.84;4881801;29;45251;-69
2021/06/17 09:14:35;;;;;;;;;3.25;3.25;;;;;27.31;100.00;100838.59;4864817;29;45336;-67
2021/06/17 09:17:04;;;;;;;;;1.75;1.75;;;;;27.21;100.00;100820.72;4882284;29;45274;-70
2021/06/17 09:19:41;;;;;;;;;3.25;3.25;;;;;27.22;100.00;100831.31;4864836;29;46404;-68
2021/06/17 09:22:08;;;;;;;;;2.75;2.25;;;;;27.34;100.00;100846.38;4881479;29;45553;-67
2021/06/17 09:24:36;;;;;;;;;3.00;2.50;;;;;27.37;100.00;100829.19;4881527;29;45309;-67
2021/06/17 09:27:20;;;;;;;;;1.50;1.50;;;;;27.55;100.00;100846.41;4881710;29;45627;-67
2021/06/17 09:29:46;;;;;;;;;2.00;2.00;;;;;27.53;100.00;100829.59;4881319;29;46242;-67
2021/06/17 09:32:19;;;;;;;;;1.75;1.75;;;;;27.64;100.00;100832.28;4881303;29;45338;-67
2021/06/17 09:34:45;;;;;;;;;2.75;2.25;;;;;27.75;100.00;100834.91;4881540;29;45350;-68
2021/06/17 09:37:46;;;;;;;;;2.25;2.25;;;;;27.86;100.00;100846.56;4881749;29;45227;-67
2021/06/17 09:40:30;;;;;;;;;1.75;1.75;;;;;27.93;100.00;100839.69;4787186;29;45483;-67
2021/06/17 09:43:19;;;;;;;;;2.00;2.00;;;;;28.11;100.00;100840.81;4787133;29;45464;-67
2021/06/17 09:46:06;;;;;;;;;2.00;2.00;;;;;28.22;100.00;100838.03;4787502;29;45497;-67
2021/06/17 09:49:04;;;;;;;;;3.00;2.75;;;;;28.44;100.00;100837.03;4788138;29;45381;-66
2021/06/17 09:51:30;;;;;;;;;3.00;2.50;;;;;28.52;100.00;100841.75;4790001;29;47314;-66
2021/06/17 09:54:18;;;;;;;;;2.00;2.00;;;;;28.71;100.00;100852.56;4790419;29;45761;-66
2021/06/17 09:56:49;;;;;;;;;2.25;2.25;;;;;28.93;100.00;100844.31;4790292;29;45474;-67
2021/06/17 09:59:35;;;;;;;;;4.00;2.25;;;;;29.30;100.00;100861.66;4790572;29;45664;-67
2021/06/17 10:05:22;;;;;;;;;2.25;2.00;;;;;30.13;100.00;100848.50;4790186;29;45389;-67
2021/06/17 10:07:49;;;;;;;;;3.25;2.75;;;;;30.13;100.00;100851.19;4790184;29;45488;-67
2021/06/17 10:10:20;;;;;;;;;5.00;3.50;;;;;30.58;100.00;100855.88;4790141;29;45382;-66
2021/06/17 10:12:45;;;;;;;;;3.00;2.00;;;;;31.36;100.00;100848.22;4789799;29;47122;-66
2021/06/17 10:15:11;;;;;;;;;3.00;3.00;;;;;32.09;100.00;100854.25;4875681;29;45441;-66
2021/06/17 10:20:59;;;;;;;;;2.50;2.25;;;;;33.56;100.00;100838.69;4884163;29;45357;-67
2021/06/17 10:23:25;;;;;;;;;4.50;4.00;;;;;34.30;100.00;100830.31;4884094;29;47261;-67
2021/06/17 10:25:51;;;;;;;;;2.25;2.25;;;;;35.16;100.00;100834.06;4884133;29;45339;-67
2021/06/17 10:28:42;;;;;;;;;3.75;3.00;;;;;35.12;100.00;100836.28;4884129;29;45215;-67
2021/06/17 10:31:09;;;;;;;;;3.00;3.00;;;;;34.33;100.00;100854.34;4883988;29;45483;-67
2021/06/17 10:37:16;;;;;;;;;2.75;2.50;;;;;32.93;100.00;100860.84;4884087;29;45343;-67
2021/06/17 10:39:51;;;;;;;;;2.75;2.00;;;;;32.41;100.00;100840.16;4884421;29;45342;-67
2021/06/17 10:42:18;;;;;;;;;2.00;2.00;;;;;32.06;100.00;100837.53;4884086;29;45591;-67
2021/06/17 10:45:06;;;;;;;;;4.00;3.00;;;;;31.81;100.00;100834.66;4883818;29;47178;-67
2021/06/17 10:50:12;;;;;;;;;3.00;2.75;;;;;31.69;100.00;100825.09;4883773;29;45338;-67
2021/06/17 10:52:40;;;;;;;;;3.75;3.00;;;;;31.91;100.00;100818.34;4883863;29;45372;-67
2021/06/17 10:55:07;;;;;;;;;3.75;3.75;;;;;32.25;100.00;100835.47;4883838;29;46585;-66
2021/06/17 11:00:30;;;;;;;;;3.50;3.25;;;;;32.85;100.00;100827.34;4883452;29;45334;-66
2021/06/17 11:03:05;;;;;;;;;6.25;4.00;;;;;32.78;100.00;100825.41;4851243;29;45672;-67
2021/06/17 11:08:17;;;;;;;;;2.00;2.00;;;;;32.78;100.00;100834.38;4883546;29;45378;-67
2021/06/17 11:10:48;;;;;;;;;4.50;3.00;;;;;32.78;100.00;100828.13;4883642;29;45364;-67
2021/06/17 11:13:52;;;;;;;;;3.75;2.75;;;;;32.75;100.00;100820.34;4883782;29;45562;-67
2021/06/17 11:16:17;;;;;;;;;0.00;0.00;;;;;32.73;100.00;100819.66;4883491;29;45631;-68
2021/06/17 11:21:31;;;;;;;;;3.25;3.00;;;;;32.82;100.00;100819.56;4883088;29;45294;-68
2021/06/17 11:24:09;;;;;;;;;4.00;4.00;;;;;33.06;100.00;100826.06;4883429;29;45388;-67
2021/06/17 11:26:44;;;;;;;;;4.00;2.75;;;;;33.26;100.00;100826.56;4882848;29;47272;-67
2021/06/17 11:29:10;;;;;;;;;3.00;3.00;;;;;33.22;100.00;100825.22;4883172;29;45381;-67
2021/06/17 11:31:40;;;;;;;;;5.00;3.25;;;;;33.11;100.00;100824.53;4883106;29;45232;-68
2021/06/17 11:34:14;;;;;;;;;4.00;3.00;;;;;33.08;100.00;100832.16;4883421;29;45449;-68
2021/06/17 11:36:52;;;;;;;;;2.75;2.75;;;;;33.09;100.00;100820.31;4882978;29;45460;-68
2021/06/17 11:39:30;;;;;;;;;3.00;2.75;;;;;33.32;100.00;100813.28;4882944;29;45394;-68
2021/06/17 11:41:58;;;;;;;;;4.50;4.25;;;;;33.78;100.00;100814.47;4882929;29;45306;-68
2021/06/17 11:44:26;;;;;;;;;1.75;1.75;;;;;33.83;100.00;100829.34;4883282;29;45419;-68
2021/06/17 11:47:15;;;;;;;;;4.00;3.50;;;;;33.74;100.00;100815.81;4882802;29;46470;-69
2021/06/17 11:49:45;;;;;;;;;3.00;3.00;;;;;33.70;100.00;100822.56;4882799;29;45343;-67
2021/06/17 11:52:15;;;;;;;;;3.00;2.00;;;;;33.54;100.00;100821.75;4882974;29;45329;-67
2021/06/17 11:54:42;;;;;;;;;3.75;3.75;;;;;33.36;100.00;100827.31;4883142;29;45510;-67
2021/06/17 11:57:08;;;;;;;;;3.00;2.25;;;;;33.30;100.00;100817.97;4882628;29;47296;-67
2021/06/17 11:59:38;;;;;;;;;3.00;2.00;;;;;33.28;100.00;100811.91;4882560;29;45327;-68
2021/06/17 12:02:04;;;;;;;;;2.25;2.25;;;;;33.29;100.00;100824.41;4883183;29;45430;-67
2021/06/17 12:04:44;;;;;;;;;2.75;2.75;;;;;33.41;100.00;100809.56;4883327;29;45383;-68
2021/06/17 12:07:12;;;;;;;;;3.00;3.00;;;;;33.93;100.00;100808.34;4882421;29;46457;-68
2021/06/17 12:09:38;;;;;;;;;3.75;3.75;;;;;34.36;100.00;100807.09;4882397;29;45422;-68
2021/06/17 12:12:16;;;;;;;;;2.25;2.00;;;;;34.45;100.00;100806.06;4882020;29;45334;-68
2021/06/17 12:14:47;;;;;;;;;4.00;3.25;;;;;34.23;100.00;100801.38;4883088;29;45323;-69
2021/06/17 12:20:32;;;;;;;;;3.50;3.00;;;;;34.59;100.00;100809.88;4882471;29;45535;-68
2021/06/17 12:22:58;;;;;;;;;2.25;2.00;;;;;34.25;100.00;100802.88;4882515;29;45317;-68
2021/06/17 12:25:27;;;;;;;;;3.50;3.00;;;;;34.14;100.00;100800.53;4882811;29;45276;-69
2021/06/17 12:27:53;;;;;;;;;3.50;3.00;;;;;34.09;100.00;100808.34;4882212;29;45549;-69
2021/06/17 12:30:34;;;;;;;;;2.00;2.00;;;;;33.97;100.00;100807.03;4882173;29;45419;-68